sensor_id;sensor_type;location;lat;lon;timestamp;pressure;altitude;pressure_sealevel;temperature;humidity
12775;BME280;6451;42.630;23.382;2022-12-01T00:00:58;94620.13;;;3.92;100.00
12775;BME280;6451;42.630;23.382;2022-12-01T00:03:26;94570.16;;;3.49;100.00
12775;BME280;6451;42.630;23.382;2022-12-01T00:05:59;94641.06;;;3.89;100.00
12775;BME280;6451;42.630;23.382;2022-12-01T00:08:27;94659.50;;;4.10;100.00
12775;BME280;6451;42.630;23.382;2022-12-01T00:10:54;94647.25;;;4.04;100.00
12775;BME280;6451;42.630;23.382;2022-12-01T00:13:20;94657.91;;;4.09;100.00
12775;BME280;6451;42.630;23.382;2022-12-01T00:15:47;94634.44;;;4.01;100.00
12775;BME280;6451;42.630;23.382;2022-12-01T00:18:16;94653.25;;;4.14;100.00
12775;BME280;6451;42.630;23.382;2022-12-01T00:20:43;94619.31;;;3.91;100.00
12775;BME280;6451;42.630;23.382;2022-12-01T00:23:10;94617.72;;;4.04;100.00
12775;BME280;6451;42.630;23.382;2022-12-01T00:25:37;94639.91;;;4.09;100.00
12775;BME280;6451;42.630;23.382;2022-12-01T00:28:04;94642.28;;;4.11;100.00
12775;BME280;6451;42.630;23.382;2022-12-01T00:30:31;94596.34;;;3.85;100.00
12775;BME280;6451;42.630;23.382;2022-12-01T00:32:58;94644.38;;;4.28;100.00
12775;BME280;6451;42.630;23.382;2022-12-01T00:35:27;94642.00;;;4.26;100.00
12775;BME280;6451;42.630;23.382;2022-12-01T00:37:54;94640.31;;;4.30;100.00
12775;BME280;6451;42.630;23.382;2022-12-01T00:40:21;94632.13;;;4.22;100.00
12775;BME280;6451;42.630;23.382;2022-12-01T00:42:49;94650.06;;;4.26;100.00
12775;BME280;6451;42.630;23.382;2022-12-01T00:45:16;94645.16;;;4.28;100.00
12775;BME280;6451;42.630;23.382;2022-12-01T00:47:45;94638.81;;;4.24;100.00
12775;BME280;6451;42.630;23.382;2022-12-01T00:50:13;94648.38;;;4.16;100.00
12775;BME280;6451;42.630;23.382;2022-12-01T00:52:42;94624.50;;;4.15;100.00
12775;BME280;6451;42.630;23.382;2022-12-01T00:55:09;94614.72;;;4.05;100.00
12775;BME280;6451;42.630;23.382;2022-12-01T00:57:36;94625.47;;;4.05;100.00
12775;BME280;6451;42.630;23.382;2022-12-01T01:00:04;94614.25;;;4.03;100.00
12775;BME280;6451;42.630;23.382;2022-12-01T01:02:31;94634.44;;;4.14;100.00
12775;BME280;6451;42.630;23.382;2022-12-01T01:04:58;94645.69;;;4.16;100.00
12775;BME280;6451;42.630;23.382;2022-12-01T01:07:25;94622.59;;;4.02;100.00
12775;BME280;6451;42.630;23.382;2022-12-01T01:09:54;94635.25;;;4.15;100.00
12775;BME280;6451;42.630;23.382;2022-12-01T01:12:20;94631.75;;;4.14;100.00
12775;BME280;6451;42.630;23.382;2022-12-01T01:14:47;94634.81;;;4.22;100.00
12775;BME280;6451;42.630;23.382;2022-12-01T01:17:14;94625.78;;;4.17;100.00
12775;BME280;6451;42.630;23.382;2022-12-01T01:19:54;94616.44;;;4.15;100.00
12775;BME280;6451;42.630;23.382;2022-12-01T01:22:21;94641.00;;;4.22;100.00
12775;BME280;6451;42.630;23.382;2022-12-01T01:24:48;94610.56;;;3.99;100.00
12775;BME280;6451;42.630;23.382;2022-12-01T01:27:17;94560.03;;;3.74;100.00
12775;BME280;6451;42.630;23.382;2022-12-01T01:29:44;94627.94;;;4.29;100.00
12775;BME280;6451;42.630;23.382;2022-12-01T01:32:10;94617.81;;;4.12;100.00
12775;BME280;6451;42.630;23.382;2022-12-01T01:34:38;94618.34;;;4.14;100.00
12775;BME280;6451;42.630;23.382;2022-12-01T01:37:05;94624.59;;;4.24;100.00
12775;BME280;6451;42.630;23.382;2022-12-01T01:39:32;94615.03;;;4.17;100.00
12775;BME280;6451;42.630;23.382;2022-12-01T01:42:00;94571.19;;;3.95;100.00
12775;BME280;6451;42.630;23.382;2022-12-01T01:44:56;94616.03;;;4.35;100.00
12775;BME280;6451;42.630;23.382;2022-12-01T01:47:27;94615.13;;;4.40;100.00
12775;BME280;6451;42.630;23.382;2022-12-01T01:49:57;94594.22;;;4.37;100.00
12775;BME280;6451;42.630;23.382;2022-12-01T01:52:30;94600.69;;;4.36;100.00
12775;BME280;6451;42.630;23.382;2022-12-01T01:54:58;94603.06;;;4.51;100.00
12775;BME280;6451;42.630;23.382;2022-12-01T01:57:27;94603.56;;;4.53;100.00
12775;BME280;6451;42.630;23.382;2022-12-01T02:00:00;94585.28;;;4.41;100.00
12775;BME280;6451;42.630;23.382;2022-12-01T02:02:28;94601.31;;;4.33;100.00
12775;BME280;6451;42.630;23.382;2022-12-01T02:04:59;94587.31;;;4.22;100.00
12775;BME280;6451;42.630;23.382;2022-12-01T02:07:27;94600.13;;;4.39;100.00
12775;BME280;6451;42.630;23.382;2022-12-01T02:09:55;94559.13;;;4.06;100.00
12775;BME280;6451;42.630;23.382;2022-12-01T02:12:33;94597.81;;;4.32;100.00
12775;BME280;6451;42.630;23.382;2022-12-01T02:15:14;94569.00;;;4.10;100.00
12775;BME280;6451;42.630;23.382;2022-12-01T02:17:47;94588.28;;;4.26;100.00
12775;BME280;6451;42.630;23.382;2022-12-01T02:24:04;94578.22;;;4.32;100.00
12775;BME280;6451;42.630;23.382;2022-12-01T02:26:43;94590.47;;;4.24;100.00
12775;BME280;6451;42.630;23.382;2022-12-01T02:29:39;94586.59;;;4.30;100.00
12775;BME280;6451;42.630;23.382;2022-12-01T02:32:15;94588.97;;;4.32;100.00
12775;BME280;6451;42.630;23.382;2022-12-01T02:34:53;94359.16;;;2.76;100.00
12775;BME280;6451;42.630;23.382;2022-12-01T02:37:27;94561.25;;;4.23;100.00
12775;BME280;6451;42.630;23.382;2022-12-01T02:40:01;94584.19;;;4.42;100.00
12775;BME280;6451;42.630;23.382;2022-12-01T02:42:34;94574.13;;;4.34;100.00
12775;BME280;6451;42.630;23.382;2022-12-01T02:45:27;94570.47;;;4.30;100.00
12775;BME280;6451;42.630;23.382;2022-12-01T02:48:01;94590.34;;;4.29;100.00
12775;BME280;6451;42.630;23.382;2022-12-01T02:50:31;94571.38;;;4.26;100.00
12775;BME280;6451;42.630;23.382;2022-12-01T02:53:02;94557.06;;;4.16;100.00
12775;BME280;6451;42.630;23.382;2022-12-01T02:55:29;94580.31;;;4.35;100.00
12775;BME280;6451;42.630;23.382;2022-12-01T02:57:56;94564.09;;;4.26;100.00
12775;BME280;6451;42.630;23.382;2022-12-01T03:00:23;94552.78;;;4.15;100.00
12775;BME280;6451;42.630;23.382;2022-12-01T03:03:01;94572.25;;;4.21;100.00
12775;BME280;6451;42.630;23.382;2022-12-01T03:05:37;94549.09;;;3.98;100.00
12775;BME280;6451;42.630;23.382;2022-12-01T03:08:11;94583.91;;;4.16;100.00
12775;BME280;6451;42.630;23.382;2022-12-01T03:10:47;94573.75;;;4.13;100.00
12775;BME280;6451;42.630;23.382;2022-12-01T03:13:25;94574.66;;;4.23;100.00
12775;BME280;6451;42.630;23.382;2022-12-01T03:16:00;94571.50;;;4.07;100.00
12775;BME280;6451;42.630;23.382;2022-12-01T03:18:36;94564.72;;;4.23;100.00
12775;BME280;6451;42.630;23.382;2022-12-01T03:21:08;94574.38;;;4.24;100.00
12775;BME280;6451;42.630;23.382;2022-12-01T03:23:38;94582.41;;;4.24;100.00
12775;BME280;6451;42.630;23.382;2022-12-01T03:26:10;94584.81;;;4.26;100.00
12775;BME280;6451;42.630;23.382;2022-12-01T03:28:45;94448.16;;;3.33;100.00
12775;BME280;6451;42.630;23.382;2022-12-01T03:31:16;94587.69;;;4.15;100.00
12775;BME280;6451;42.630;23.382;2022-12-01T03:33:49;94536.38;;;3.89;100.00
12775;BME280;6451;42.630;23.382;2022-12-01T03:36:21;94552.41;;;4.08;100.00
12775;BME280;6451;42.630;23.382;2022-12-01T03:38:54;94553.09;;;4.00;100.00
12775;BME280;6451;42.630;23.382;2022-12-01T03:41:27;94555.66;;;4.05;100.00
12775;BME280;6451;42.630;23.382;2022-12-01T03:44:02;94581.94;;;4.22;100.00
12775;BME280;6451;42.630;23.382;2022-12-01T03:46:39;94582.22;;;4.21;100.00
12775;BME280;6451;42.630;23.382;2022-12-01T03:49:11;94545.75;;;3.92;100.00
12775;BME280;6451;42.630;23.382;2022-12-01T03:51:46;94559.94;;;4.06;100.00
12775;BME280;6451;42.630;23.382;2022-12-01T03:54:18;94543.63;;;3.89;100.00
12775;BME280;6451;42.630;23.382;2022-12-01T03:56:52;94551.69;;;4.03;100.00
12775;BME280;6451;42.630;23.382;2022-12-01T03:59:23;94583.59;;;4.18;100.00
12775;BME280;6451;42.630;23.382;2022-12-01T04:01:51;94564.13;;;3.99;100.00
12775;BME280;6451;42.630;23.382;2022-12-01T04:04:19;94577.53;;;3.99;100.00
12775;BME280;6451;42.630;23.382;2022-12-01T04:06:48;94581.44;;;3.93;100.00
12775;BME280;6451;42.630;23.382;2022-12-01T04:09:16;94559.88;;;3.84;100.00
12775;BME280;6451;42.630;23.382;2022-12-01T04:11:43;94564.31;;;3.88;100.00
12775;BME280;6451;42.630;23.382;2022-12-01T04:14:39;94545.63;;;3.70;100.00
12775;BME280;6451;42.630;23.382;2022-12-01T04:17:06;94582.94;;;3.85;100.00
12775;BME280;6451;42.630;23.382;2022-12-01T04:19:34;94581.94;;;3.95;100.00
12775;BME280;6451;42.630;23.382;2022-12-01T04:22:02;94586.41;;;3.85;100.00
12775;BME280;6451;42.630;23.382;2022-12-01T04:24:29;94572.16;;;3.71;100.00
12775;BME280;6451;42.630;23.382;2022-12-01T04:26:57;94581.34;;;3.84;100.00
12775;BME280;6451;42.630;23.382;2022-12-01T04:29:24;94584.28;;;3.82;100.00
12775;BME280;6451;42.630;23.382;2022-12-01T04:31:51;94590.19;;;3.84;100.00
12775;BME280;6451;42.630;23.382;2022-12-01T04:34:18;94589.97;;;3.81;100.00
12775;BME280;6451;42.630;23.382;2022-12-01T04:36:46;94592.34;;;3.82;100.00
12775;BME280;6451;42.630;23.382;2022-12-01T04:39:13;94577.06;;;3.69;100.00
12775;BME280;6451;42.630;23.382;2022-12-01T04:41:40;94596.41;;;3.66;100.00
12775;BME280;6451;42.630;23.382;2022-12-01T04:44:09;94581.00;;;3.58;100.00
12775;BME280;6451;42.630;23.382;2022-12-01T04:46:36;94576.34;;;3.63;100.00
12775;BME280;6451;42.630;23.382;2022-12-01T04:49:03;94579.50;;;3.66;100.00
12775;BME280;6451;42.630;23.382;2022-12-01T04:51:30;94594.25;;;3.68;100.00
12775;BME280;6451;42.630;23.382;2022-12-01T04:54:00;94559.22;;;3.46;100.00
12775;BME280;6451;42.630;23.382;2022-12-01T04:56:28;94594.16;;;3.87;100.00
12775;BME280;6451;42.630;23.382;2022-12-01T04:58:56;94582.00;;;3.62;100.00
12775;BME280;6451;42.630;23.382;2022-12-01T05:01:24;94602.97;;;3.74;100.00
12775;BME280;6451;42.630;23.382;2022-12-01T05:03:51;94594.09;;;3.59;100.00
12775;BME280;6451;42.630;23.382;2022-12-01T05:06:20;94577.50;;;3.57;100.00
12775;BME280;6451;42.630;23.382;2022-12-01T05:08:48;94580.41;;;3.61;100.00
12775;BME280;6451;42.630;23.382;2022-12-01T05:11:17;94593.72;;;3.66;100.00
12775;BME280;6451;42.630;23.382;2022-12-01T05:13:46;94589.53;;;3.60;100.00
12775;BME280;6451;42.630;23.382;2022-12-01T05:16:15;94598.50;;;3.55;100.00
12775;BME280;6451;42.630;23.382;2022-12-01T05:18:42;94591.22;;;3.56;100.00
12775;BME280;6451;42.630;23.382;2022-12-01T05:21:12;94604.84;;;3.59;100.00
12775;BME280;6451;42.630;23.382;2022-12-01T05:23:38;94603.06;;;3.55;100.00
12775;BME280;6451;42.630;23.382;2022-12-01T05:26:07;94590.41;;;3.42;100.00
12775;BME280;6451;42.630;23.382;2022-12-01T05:28:37;94602.66;;;3.48;100.00
12775;BME280;6451;42.630;23.382;2022-12-01T05:31:05;94576.91;;;3.47;100.00
12775;BME280;6451;42.630;23.382;2022-12-01T05:33:32;94595.19;;;3.58;100.00
12775;BME280;6451;42.630;23.382;2022-12-01T05:36:00;94604.16;;;3.54;100.00
12775;BME280;6451;42.630;23.382;2022-12-01T05:38:44;94581.28;;;3.56;100.00
12775;BME280;6451;42.630;23.382;2022-12-01T05:41:14;94584.34;;;3.50;100.00
12775;BME280;6451;42.630;23.382;2022-12-01T05:43:43;94582.47;;;3.50;100.00
12775;BME280;6451;42.630;23.382;2022-12-01T05:46:11;94595.00;;;3.55;100.00
12775;BME280;6451;42.630;23.382;2022-12-01T05:48:38;94599.47;;;3.59;100.00
12775;BME280;6451;42.630;23.382;2022-12-01T05:51:09;94603.56;;;3.57;100.00
12775;BME280;6451;42.630;23.382;2022-12-01T05:53:36;94601.56;;;3.49;100.00
12775;BME280;6451;42.630;23.382;2022-12-01T05:56:05;94598.19;;;3.57;100.00
12775;BME280;6451;42.630;23.382;2022-12-01T05:58:33;94604.75;;;3.65;100.00
12775;BME280;6451;42.630;23.382;2022-12-01T06:01:02;94606.16;;;3.62;100.00
12775;BME280;6451;42.630;23.382;2022-12-01T06:03:31;94610.44;;;3.63;100.00
12775;BME280;6451;42.630;23.382;2022-12-01T06:05:59;94606.47;;;3.60;100.00
12775;BME280;6451;42.630;23.382;2022-12-01T06:08:26;94602.03;;;3.51;100.00
12775;BME280;6451;42.630;23.382;2022-12-01T06:10:53;94607.31;;;3.56;100.00
12775;BME280;6451;42.630;23.382;2022-12-01T06:13:21;94605.56;;;3.65;100.00
12775;BME280;6451;42.630;23.382;2022-12-01T06:15:58;94602.56;;;3.53;100.00
12775;BME280;6451;42.630;23.382;2022-12-01T06:18:28;94602.16;;;3.59;100.00
12775;BME280;6451;42.630;23.382;2022-12-01T06:20:55;94602.66;;;3.48;100.00
12775;BME280;6451;42.630;23.382;2022-12-01T06:23:23;94612.88;;;3.46;100.00
12775;BME280;6451;42.630;23.382;2022-12-01T06:25:49;94613.94;;;3.45;100.00
12775;BME280;6451;42.630;23.382;2022-12-01T06:28:16;94534.25;;;2.99;100.00
12775;BME280;6451;42.630;23.382;2022-12-01T06:30:44;94612.66;;;3.42;100.00
12775;BME280;6451;42.630;23.382;2022-12-01T06:33:11;94600.03;;;3.43;100.00
12775;BME280;6451;42.630;23.382;2022-12-01T06:35:39;94609.19;;;3.42;100.00
12775;BME280;6451;42.630;23.382;2022-12-01T06:38:06;94604.59;;;3.42;100.00
12775;BME280;6451;42.630;23.382;2022-12-01T06:40:33;94594.50;;;3.20;100.00
12775;BME280;6451;42.630;23.382;2022-12-01T06:43:00;94608.84;;;3.29;100.00
12775;BME280;6451;42.630;23.382;2022-12-01T06:45:28;94595.44;;;3.29;100.00
12775;BME280;6451;42.630;23.382;2022-12-01T06:47:58;94592.38;;;3.36;100.00
12775;BME280;6451;42.630;23.382;2022-12-01T06:50:25;94592.16;;;3.32;100.00
12775;BME280;6451;42.630;23.382;2022-12-01T06:52:54;94601.72;;;3.39;100.00
12775;BME280;6451;42.630;23.382;2022-12-01T06:55:21;94604.22;;;3.49;100.00
12775;BME280;6451;42.630;23.382;2022-12-01T06:57:48;94603.75;;;3.47;100.00
12775;BME280;6451;42.630;23.382;2022-12-01T07:00:18;94599.25;;;3.42;100.00
12775;BME280;6451;42.630;23.382;2022-12-01T07:02:45;94602.41;;;3.44;100.00
12775;BME280;6451;42.630;23.382;2022-12-01T07:05:13;94597.28;;;3.48;100.00
12775;BME280;6451;42.630;23.382;2022-12-01T07:07:40;94607.31;;;3.56;100.00
12775;BME280;6451;42.630;23.382;2022-12-01T07:10:12;94594.50;;;3.53;100.00
12775;BME280;6451;42.630;23.382;2022-12-01T07:12:39;94612.69;;;3.56;100.00
12775;BME280;6451;42.630;23.382;2022-12-01T07:15:07;94609.22;;;3.55;100.00
12775;BME280;6451;42.630;23.382;2022-12-01T07:17:35;94608.63;;;3.58;100.00
12775;BME280;6451;42.630;23.382;2022-12-01T07:20:03;94591.31;;;3.51;100.00
12775;BME280;6451;42.630;23.382;2022-12-01T07:22:30;94587.63;;;3.47;100.00
12775;BME280;6451;42.630;23.382;2022-12-01T07:24:57;94602.94;;;3.46;100.00
12775;BME280;6451;42.630;23.382;2022-12-01T07:27:28;94594.97;;;3.41;100.00
12775;BME280;6451;42.630;23.382;2022-12-01T07:29:55;94605.25;;;3.53;100.00
12775;BME280;6451;42.630;23.382;2022-12-01T07:32:23;94611.81;;;3.60;100.00
12775;BME280;6451;42.630;23.382;2022-12-01T07:34:50;94617.56;;;3.54;100.00
12775;BME280;6451;42.630;23.382;2022-12-01T07:37:17;94627.34;;;3.45;100.00
12775;BME280;6451;42.630;23.382;2022-12-01T07:39:44;94619.31;;;3.45;100.00
12775;BME280;6451;42.630;23.382;2022-12-01T07:42:11;94623.63;;;3.59;100.00
12775;BME280;6451;42.630;23.382;2022-12-01T07:44:40;94622.09;;;3.40;100.00
12775;BME280;6451;42.630;23.382;2022-12-01T07:47:12;94627.66;;;3.43;100.00
12775;BME280;6451;42.630;23.382;2022-12-01T07:49:44;94593.16;;;3.37;100.00
12775;BME280;6451;42.630;23.382;2022-12-01T07:52:12;94621.59;;;3.38;100.00
12775;BME280;6451;42.630;23.382;2022-12-01T07:54:39;94624.78;;;3.40;100.00
12775;BME280;6451;42.630;23.382;2022-12-01T07:57:07;94620.38;;;3.30;100.00
12775;BME280;6451;42.630;23.382;2022-12-01T07:59:34;94628.19;;;3.45;100.00
12775;BME280;6451;42.630;23.382;2022-12-01T08:02:02;94625.00;;;3.57;100.00
12775;BME280;6451;42.630;23.382;2022-12-01T08:04:29;94619.47;;;3.53;100.00
12775;BME280;6451;42.630;23.382;2022-12-01T08:06:57;94623.91;;;3.58;100.00
12775;BME280;6451;42.630;23.382;2022-12-01T08:09:24;94620.81;;;3.51;100.00
12775;BME280;6451;42.630;23.382;2022-12-01T08:11:51;94619.47;;;3.53;100.00
12775;BME280;6451;42.630;23.382;2022-12-01T08:14:19;94624.28;;;3.51;100.00
12775;BME280;6451;42.630;23.382;2022-12-01T08:16:47;94619.19;;;3.36;100.00
12775;BME280;6451;42.630;23.382;2022-12-01T08:19:16;94623.44;;;3.56;100.00
12775;BME280;6451;42.630;23.382;2022-12-01T08:21:43;94621.16;;;3.63;100.00
12775;BME280;6451;42.630;23.382;2022-12-01T08:24:10;94621.16;;;3.63;100.00
12775;BME280;6451;42.630;23.382;2022-12-01T08:26:37;94624.72;;;3.58;100.00
12775;BME280;6451;42.630;23.382;2022-12-01T08:29:04;94627.13;;;3.74;100.00
12775;BME280;6451;42.630;23.382;2022-12-01T08:31:32;94630.94;;;3.86;100.00
12775;BME280;6451;42.630;23.382;2022-12-01T08:34:05;94432.16;;;2.35;100.00
12775;BME280;6451;42.630;23.382;2022-12-01T08:36:34;94626.53;;;3.63;100.00
12775;BME280;6451;42.630;23.382;2022-12-01T08:39:02;94622.66;;;3.69;100.00
12775;BME280;6451;42.630;23.382;2022-12-01T08:41:29;94612.81;;;3.65;100.00
12775;BME280;6451;42.630;23.382;2022-12-01T08:43:57;94619.97;;;3.69;100.00
12775;BME280;6451;42.630;23.382;2022-12-01T08:46:24;94596.38;;;3.52;100.00
12775;BME280;6451;42.630;23.382;2022-12-01T08:48:53;94616.50;;;3.69;100.00
12775;BME280;6451;42.630;23.382;2022-12-01T08:51:22;94606.06;;;3.81;100.00
12775;BME280;6451;42.630;23.382;2022-12-01T08:53:50;94597.59;;;3.74;100.00
12775;BME280;6451;42.630;23.382;2022-12-01T08:56:20;94605.16;;;3.72;100.00
12775;BME280;6451;42.630;23.382;2022-12-01T08:58:48;94620.69;;;3.88;100.00
12775;BME280;6451;42.630;23.382;2022-12-01T09:01:16;94617.00;;;3.98;100.00
12775;BME280;6451;42.630;23.382;2022-12-01T09:03:44;94612.06;;;3.92;100.00
12775;BME280;6451;42.630;23.382;2022-12-01T09:06:14;94613.81;;;3.82;100.00
12775;BME280;6451;42.630;23.382;2022-12-01T09:08:41;94604.06;;;3.73;100.00
12775;BME280;6451;42.630;23.382;2022-12-01T09:11:11;94606.97;;;3.76;100.00
12775;BME280;6451;42.630;23.382;2022-12-01T09:13:40;94600.31;;;3.87;100.00
12775;BME280;6451;42.630;23.382;2022-12-01T09:16:11;94600.91;;;3.98;100.00
12775;BME280;6451;42.630;23.382;2022-12-01T09:18:39;94593.56;;;3.76;100.00
12775;BME280;6451;42.630;23.382;2022-12-01T09:21:10;94597.53;;;3.93;100.00
12775;BME280;6451;42.630;23.382;2022-12-01T09:23:38;94601.72;;;3.85;100.00
12775;BME280;6451;42.630;23.382;2022-12-01T09:26:06;94582.31;;;3.88;100.00
12775;BME280;6451;42.630;23.382;2022-12-01T09:28:34;94589.09;;;3.85;100.00
12775;BME280;6451;42.630;23.382;2022-12-01T09:31:05;94587.78;;;3.97;100.00
12775;BME280;6451;42.630;23.382;2022-12-01T09:33:34;94577.97;;;3.92;100.00
12775;BME280;6451;42.630;23.382;2022-12-01T09:36:02;94592.28;;;4.15;100.00
12775;BME280;6451;42.630;23.382;2022-12-01T09:38:30;94574.19;;;3.93;100.00
12775;BME280;6451;42.630;23.382;2022-12-01T09:41:01;94581.22;;;4.03;100.00
12775;BME280;6451;42.630;23.382;2022-12-01T09:43:42;94574.28;;;4.02;100.00
12775;BME280;6451;42.630;23.382;2022-12-01T09:46:15;94580.84;;;4.09;100.00
12775;BME280;6451;42.630;23.382;2022-12-01T09:48:46;94556.88;;;3.85;100.00
12775;BME280;6451;42.630;23.382;2022-12-01T09:51:14;94579.94;;;4.00;100.00
12775;BME280;6451;42.630;23.382;2022-12-01T09:53:42;94548.91;;;3.80;100.00
12775;BME280;6451;42.630;23.382;2022-12-01T09:56:19;94571.88;;;3.86;100.00
12775;BME280;6451;42.630;23.382;2022-12-01T09:58:51;94567.31;;;3.87;100.00
12775;BME280;6451;42.630;23.382;2022-12-01T10:01:19;94553.00;;;3.78;100.00
12775;BME280;6451;42.630;23.382;2022-12-01T10:03:54;94559.97;;;3.93;100.00
12775;BME280;6451;42.630;23.382;2022-12-01T10:06:28;94558.06;;;3.93;100.00
12775;BME280;6451;42.630;23.382;2022-12-01T10:09:04;94539.19;;;3.84;100.00
12775;BME280;6451;42.630;23.382;2022-12-01T10:11:40;94559.56;;;3.99;100.00
12775;BME280;6451;42.630;23.382;2022-12-01T10:14:14;94543.81;;;4.06;100.00
12775;BME280;6451;42.630;23.382;2022-12-01T10:16:47;94540.97;;;4.03;100.00
12775;BME280;6451;42.630;23.382;2022-12-01T10:19:21;94552.78;;;4.02;100.00
12775;BME280;6451;42.630;23.382;2022-12-01T10:22:11;94553.91;;;4.01;100.00
12775;BME280;6451;42.630;23.382;2022-12-01T10:24:52;94558.66;;;4.04;100.00
12775;BME280;6451;42.630;23.382;2022-12-01T10:27:28;94547.50;;;3.97;100.00
12775;BME280;6451;42.630;23.382;2022-12-01T10:30:02;94554.38;;;4.03;100.00
12775;BME280;6451;42.630;23.382;2022-12-01T10:32:37;94554.56;;;4.06;100.00
12775;BME280;6451;42.630;23.382;2022-12-01T10:35:08;94554.69;;;4.01;100.00
12775;BME280;6451;42.630;23.382;2022-12-01T10:37:37;94545.03;;;3.86;100.00
12775;BME280;6451;42.630;23.382;2022-12-01T10:40:10;94537.88;;;3.82;100.00
12775;BME280;6451;42.630;23.382;2022-12-01T10:42:40;94552.41;;;3.95;100.00
12775;BME280;6451;42.630;23.382;2022-12-01T10:45:15;94554.19;;;3.99;100.00
12775;BME280;6451;42.630;23.382;2022-12-01T10:48:12;94545.31;;;4.12;100.00
12775;BME280;6451;42.630;23.382;2022-12-01T10:50:41;94529.44;;;3.88;100.00
12775;BME280;6451;42.630;23.382;2022-12-01T10:53:25;94542.53;;;4.04;100.00
12775;BME280;6451;42.630;23.382;2022-12-01T10:55:59;94539.47;;;3.97;100.00
12775;BME280;6451;42.630;23.382;2022-12-01T10:58:29;94522.47;;;4.01;100.00
12775;BME280;6451;42.630;23.382;2022-12-01T11:01:01;94523.84;;;3.99;100.00
12775;BME280;6451;42.630;23.382;2022-12-01T11:03:30;94489.16;;;3.75;100.00
12775;BME280;6451;42.630;23.382;2022-12-01T11:06:01;94530.41;;;4.06;100.00
12775;BME280;6451;42.630;23.382;2022-12-01T11:08:35;94533.28;;;4.10;100.00
12775;BME280;6451;42.630;23.382;2022-12-01T11:11:03;94541.66;;;4.08;100.00
12775;BME280;6451;42.630;23.382;2022-12-01T11:13:33;94530.22;;;4.03;100.00
12775;BME280;6451;42.630;23.382;2022-12-01T11:16:04;94523.25;;;4.02;100.00
12775;BME280;6451;42.630;23.382;2022-12-01T11:18:33;94518.91;;;3.92;100.00
12775;BME280;6451;42.630;23.382;2022-12-01T11:21:07;94527.53;;;4.03;100.00
12775;BME280;6451;42.630;23.382;2022-12-01T11:23:55;94527.22;;;4.04;100.00
12775;BME280;6451;42.630;23.382;2022-12-01T11:26:30;94524.94;;;4.11;100.00
12775;BME280;6451;42.630;23.382;2022-12-01T11:28:59;94530.00;;;4.13;100.00
12775;BME280;6451;42.630;23.382;2022-12-01T11:31:37;94504.25;;;3.98;100.00
12775;BME280;6451;42.630;23.382;2022-12-01T11:34:13;94496.25;;;3.84;100.00
12775;BME280;6451;42.630;23.382;2022-12-01T11:36:53;94525.34;;;4.05;100.00
12775;BME280;6451;42.630;23.382;2022-12-01T11:39:26;94516.50;;;4.04;100.00
12775;BME280;6451;42.630;23.382;2022-12-01T11:41:56;94527.84;;;4.01;100.00
12775;BME280;6451;42.630;23.382;2022-12-01T11:44:25;94510.25;;;3.95;100.00
12775;BME280;6451;42.630;23.382;2022-12-01T11:46:53;94518.38;;;4.04;100.00
12775;BME280;6451;42.630;23.382;2022-12-01T11:49:22;94511.41;;;4.03;100.00
12775;BME280;6451;42.630;23.382;2022-12-01T11:51:50;94514.72;;;4.00;100.00
12775;BME280;6451;42.630;23.382;2022-12-01T11:54:20;94519.56;;;4.11;100.00
12775;BME280;6451;42.630;23.382;2022-12-01T11:56:48;94521.47;;;3.97;100.00
12775;BME280;6451;42.630;23.382;2022-12-01T11:59:19;94517.59;;;4.03;100.00
12775;BME280;6451;42.630;23.382;2022-12-01T12:01:57;94521.47;;;3.97;100.00
12775;BME280;6451;42.630;23.382;2022-12-01T12:04:49;94521.47;;;3.97;100.00
12775;BME280;6451;42.630;23.382;2022-12-01T12:07:27;94422.13;;;3.33;100.00
12775;BME280;6451;42.630;23.382;2022-12-01T12:10:08;94524.84;;;4.03;100.00
12775;BME280;6451;42.630;23.382;2022-12-01T12:12:56;94519.69;;;3.93;100.00
12775;BME280;6451;42.630;23.382;2022-12-01T12:15:40;94524.84;;;3.89;100.00
12775;BME280;6451;42.630;23.382;2022-12-01T12:18:35;94522.94;;;4.03;100.00
12775;BME280;6451;42.630;23.382;2022-12-01T12:21:13;94526.75;;;3.88;100.00
12775;BME280;6451;42.630;23.382;2022-12-01T12:26:57;94524.66;;;3.85;100.00
12775;BME280;6451;42.630;23.382;2022-12-01T12:29:39;94526.34;;;3.81;100.00
12775;BME280;6451;42.630;23.382;2022-12-01T12:32:24;94519.22;;;3.77;100.00
12775;BME280;6451;42.630;23.382;2022-12-01T12:35:02;94530.53;;;3.87;100.00
12775;BME280;6451;42.630;23.382;2022-12-01T12:37:39;94531.41;;;3.83;100.00
12775;BME280;6451;42.630;23.382;2022-12-01T12:40:30;94532.31;;;3.78;100.00
12775;BME280;6451;42.630;23.382;2022-12-01T12:43:08;94534.13;;;3.69;100.00
12775;BME280;6451;42.630;23.382;2022-12-01T12:45:53;94532.81;;;3.67;100.00
12775;BME280;6451;42.630;23.382;2022-12-01T12:48:31;94535.59;;;3.75;100.00
12775;BME280;6451;42.630;23.382;2022-12-01T12:51:11;94538.78;;;3.63;100.00
12775;BME280;6451;42.630;23.382;2022-12-01T12:53:50;94530.72;;;3.63;100.00
12775;BME280;6451;42.630;23.382;2022-12-01T12:56:20;94517.09;;;3.60;100.00
12775;BME280;6451;42.630;23.382;2022-12-01T12:58:54;94416.34;;;2.85;100.00
12775;BME280;6451;42.630;23.382;2022-12-01T13:01:26;94529.13;;;3.49;100.00
12775;BME280;6451;42.630;23.382;2022-12-01T13:03:59;94535.59;;;3.61;100.00
12775;BME280;6451;42.630;23.382;2022-12-01T13:06:35;94541.13;;;3.51;100.00
12775;BME280;6451;42.630;23.382;2022-12-01T13:09:08;94544.41;;;3.48;100.00
12775;BME280;6451;42.630;23.382;2022-12-01T13:11:43;94531.09;;;3.43;100.00
12775;BME280;6451;42.630;23.382;2022-12-01T13:14:17;94527.50;;;3.34;100.00
12775;BME280;6451;42.630;23.382;2022-12-01T13:16:50;94548.09;;;3.52;100.00
12775;BME280;6451;42.630;23.382;2022-12-01T13:19:22;94538.66;;;3.41;100.00
12775;BME280;6451;42.630;23.382;2022-12-01T13:21:54;94545.03;;;3.45;100.00
12775;BME280;6451;42.630;23.382;2022-12-01T13:24:23;94553.25;;;3.49;100.00
12775;BME280;6451;42.630;23.382;2022-12-01T13:26:54;94400.09;;;2.49;100.00